Terminal Aerodrome Forecast
Issued by NWS

Home | Current Version | Previous Version | Text Only | Print | Product List | Glossary On
Versions: 1 2 3 4 5 6 7 8 9 10 11 12 13 14 15 16 17
168
FTUS43 KICT 202336
TAFCNU
TAF
KCNU 202336Z 2100/2124 20008KT P6SM BKN025
     FM210600 33006KT 4SM BR BKN015
      TEMPO 2108/2112 2SM BR FEW015
     FM211400 34008KT P6SM SKC
     FM212100 VRB04KT P6SM SKC=

USA.gov is the U.S. government's official web portal to all federal, state and local government web resources and services.